createdAt,value
2022-12-03T00:00:16.722Z,45.57
2022-12-03T00:02:43.825Z,45.59
2022-12-03T00:05:11.049Z,45.43
2022-12-03T00:07:37.959Z,45.35
2022-12-03T00:10:05.641Z,45.51
2022-12-03T00:12:32.625Z,44.96
2022-12-03T00:14:59.520Z,45.11
2022-12-03T00:17:26.527Z,45.05
2022-12-03T00:19:53.437Z,44.80
2022-12-03T00:22:20.481Z,44.93
2022-12-03T00:24:47.431Z,44.91
2022-12-03T00:27:14.251Z,44.96
2022-12-03T00:29:41.122Z,44.92
2022-12-03T00:32:08.090Z,44.96
2022-12-03T00:34:35.069Z,44.37
2022-12-03T00:37:02.371Z,44.51
2022-12-03T00:39:29.195Z,44.31
2022-12-03T00:41:56.017Z,44.04
2022-12-03T00:44:22.772Z,43.84
2022-12-03T00:46:49.707Z,43.88
2022-12-03T00:49:16.598Z,44.08
2022-12-03T00:51:43.519Z,43.58
2022-12-03T00:54:10.480Z,43.79
2022-12-03T00:56:37.352Z,43.88
2022-12-03T00:59:04.251Z,43.84
2022-12-03T01:01:31.265Z,43.81
2022-12-03T01:03:58.120Z,43.91
2022-12-03T01:06:24.960Z,43.98
2022-12-03T01:08:51.753Z,43.88
2022-12-03T01:11:21.817Z,44.06
2022-12-03T01:13:48.641Z,44.22
2022-12-03T01:16:15.646Z,44.27
2022-12-03T01:18:42.640Z,44.40
2022-12-03T01:21:09.520Z,44.32
2022-12-03T01:23:36.318Z,44.84
2022-12-03T01:26:03.128Z,45.23
2022-12-03T01:28:29.992Z,44.91
2022-12-03T01:31:00.145Z,45.11
2022-12-03T01:33:27.119Z,45.30
2022-12-03T01:35:54.000Z,45.31
2022-12-03T01:38:21.072Z,45.11
2022-12-03T01:40:50.227Z,44.95
2022-12-03T01:43:17.149Z,45.28
2022-12-03T01:45:44.022Z,45.12
2022-12-03T01:48:14.088Z,45.12
2022-12-03T01:50:40.912Z,45.60
2022-12-03T01:53:10.406Z,45.21
2022-12-03T01:55:37.838Z,45.61
2022-12-03T01:58:04.712Z,45.20
2022-12-03T02:00:31.970Z,45.80
2022-12-03T02:03:00.752Z,45.54
2022-12-03T02:05:29.322Z,45.42
2022-12-03T02:07:56.871Z,45.60
2022-12-03T02:10:25.777Z,45.39
2022-12-03T02:12:55.706Z,45.19
2022-12-03T02:15:22.632Z,45.42
2022-12-03T02:17:49.596Z,45.74
2022-12-03T02:20:16.725Z,45.43
2022-12-03T02:22:46.712Z,45.47
2022-12-03T02:25:14.977Z,45.28
2022-12-03T02:27:42.161Z,45.66
2022-12-03T02:30:09.505Z,45.73
2022-12-03T02:32:37.113Z,45.60
2022-12-03T02:35:04.079Z,45.22
2022-12-03T02:37:33.049Z,45.69
2022-12-03T02:40:01.773Z,45.21
2022-12-03T02:42:32.404Z,45.56
2022-12-03T02:45:05.511Z,45.53
2022-12-03T02:47:34.247Z,45.59
2022-12-03T02:50:02.551Z,45.41
2022-12-03T02:52:29.443Z,45.72
2022-12-03T02:54:56.462Z,45.42
2022-12-03T02:57:25.231Z,45.59
2022-12-03T02:59:52.298Z,45.50
2022-12-03T03:02:19.555Z,45.25
2022-12-03T03:04:46.707Z,45.16
2022-12-03T03:07:14.337Z,45.37
2022-12-03T03:09:41.672Z,45.20
2022-12-03T03:12:09.555Z,45.25
2022-12-03T03:14:36.641Z,45.28
2022-12-03T03:17:03.752Z,45.39
2022-12-03T03:19:30.955Z,45.45
2022-12-03T03:22:05.584Z,45.54
2022-12-03T03:24:32.538Z,45.60
2022-12-03T03:26:59.420Z,45.42
2022-12-03T03:29:26.448Z,45.52
2022-12-03T03:31:53.361Z,45.89
2022-12-03T03:34:20.395Z,45.82
2022-12-03T03:36:47.369Z,46.20
2022-12-03T03:39:14.251Z,46.22
2022-12-03T03:41:41.512Z,46.17
2022-12-03T03:44:09.042Z,46.32
2022-12-03T03:46:37.354Z,46.49
2022-12-03T03:49:05.507Z,46.55
2022-12-03T03:51:33.170Z,46.05
2022-12-03T03:54:00.315Z,46.55
2022-12-03T03:56:27.433Z,46.52
2022-12-03T03:58:55.596Z,46.46
2022-12-03T04:01:24.016Z,46.32
2022-12-03T04:03:51.115Z,46.11
2022-12-03T04:06:18.004Z,46.33
2022-12-03T04:08:44.956Z,46.70
2022-12-03T04:11:14.872Z,46.38
2022-12-03T04:13:41.765Z,46.57
2022-12-03T04:16:08.667Z,46.60
2022-12-03T04:18:38.697Z,46.49
2022-12-03T04:21:08.808Z,46.33
2022-12-03T04:23:35.677Z,46.31
2022-12-03T04:26:05.679Z,46.81
2022-12-03T04:28:35.592Z,46.84
2022-12-03T04:31:22.374Z,46.64
2022-12-03T04:33:52.411Z,46.67
2022-12-03T04:36:19.227Z,46.72
2022-12-03T04:38:46.072Z,46.57
2022-12-03T04:41:12.960Z,46.69
2022-12-03T04:43:59.680Z,46.45
2022-12-03T04:46:26.528Z,46.39
2022-12-03T04:48:53.383Z,46.63
2022-12-03T04:51:20.228Z,46.77
2022-12-03T04:53:47.198Z,46.85
2022-12-03T04:56:14.266Z,46.78
2022-12-03T04:58:41.125Z,46.79
2022-12-03T05:01:07.963Z,46.97
2022-12-03T05:03:34.987Z,46.61
2022-12-03T05:06:01.757Z,46.72
2022-12-03T05:08:28.654Z,46.82
2022-12-03T05:10:55.522Z,47.13
2022-12-03T05:13:22.370Z,47.17
2022-12-03T05:15:49.266Z,47.33
2022-12-03T05:18:16.175Z,47.08
2022-12-03T05:20:46.939Z,47.01
2022-12-03T05:23:18.484Z,47.09
2022-12-03T05:25:45.370Z,47.05
2022-12-03T05:28:12.319Z,47.06
2022-12-03T05:30:39.347Z,47.40
2022-12-03T05:33:06.241Z,47.70
2022-12-03T05:35:33.513Z,47.34
2022-12-03T05:38:00.303Z,47.44
2022-12-03T05:40:27.117Z,47.69
2022-12-03T05:42:54.012Z,47.36
2022-12-03T05:45:21.756Z,47.80
2022-12-03T05:47:48.721Z,47.77
2022-12-03T05:50:15.757Z,47.80
2022-12-03T05:52:42.841Z,47.83
2022-12-03T05:55:10.806Z,47.81
2022-12-03T05:57:38.390Z,47.85
2022-12-03T06:00:06.010Z,47.58
2022-12-03T06:02:32.977Z,47.60
2022-12-03T06:05:00.002Z,47.52
2022-12-03T06:07:27.032Z,47.70
2022-12-03T06:09:53.995Z,47.61
2022-12-03T06:12:20.794Z,47.82
2022-12-03T06:14:47.654Z,47.63
2022-12-03T06:17:14.563Z,47.70
2022-12-03T06:19:41.509Z,47.72
2022-12-03T06:22:08.404Z,47.44
2022-12-03T06:24:35.276Z,47.94
2022-12-03T06:27:02.233Z,47.82
2022-12-03T06:29:29.057Z,47.90
2022-12-03T06:31:56.079Z,47.88
2022-12-03T06:34:22.891Z,47.85
2022-12-03T06:36:50.921Z,47.97
2022-12-03T06:39:18.400Z,47.64
2022-12-03T06:41:45.402Z,47.95
2022-12-03T06:44:12.320Z,47.78
2022-12-03T06:46:39.190Z,47.57
2022-12-03T06:49:06.099Z,47.96
2022-12-03T06:51:32.974Z,48.17
2022-12-03T06:53:59.812Z,48.09
2022-12-03T06:56:32.834Z,48.10
2022-12-03T06:59:02.077Z,47.64
2022-12-03T07:01:29.056Z,48.01
2022-12-03T07:03:55.919Z,47.89
2022-12-03T07:06:22.799Z,48.14
2022-12-03T07:08:49.839Z,48.44
2022-12-03T07:11:19.748Z,48.14
2022-12-03T07:13:46.638Z,48.21
2022-12-03T07:16:13.553Z,48.35
2022-12-03T07:18:40.471Z,48.37
2022-12-03T07:21:07.335Z,48.60
2022-12-03T07:23:34.249Z,48.50
2022-12-03T07:26:01.084Z,48.71
2022-12-03T07:28:27.921Z,48.77
2022-12-03T07:30:54.845Z,48.64
2022-12-03T07:33:21.841Z,48.95
2022-12-03T07:35:48.911Z,48.42
2022-12-03T07:38:15.914Z,48.46
2022-12-03T07:40:42.797Z,48.65
2022-12-03T07:43:09.674Z,48.38
2022-12-03T07:45:36.556Z,48.47
2022-12-03T07:48:03.457Z,48.09
2022-12-03T07:50:30.272Z,48.07
2022-12-03T07:52:57.054Z,48.27
2022-12-03T07:55:25.478Z,48.24
2022-12-03T07:57:52.716Z,48.00
2022-12-03T08:00:20.311Z,48.15
2022-12-03T08:02:47.271Z,47.98
2022-12-03T08:05:14.611Z,48.11
2022-12-03T08:07:41.727Z,47.93
2022-12-03T08:10:09.008Z,47.58
2022-12-03T08:12:41.424Z,48.33
2022-12-03T08:15:11.013Z,47.88
2022-12-03T08:17:40.601Z,47.70
2022-12-03T08:20:10.606Z,47.24
2022-12-03T08:22:37.513Z,47.21
2022-12-03T08:25:06.964Z,46.95
2022-12-03T08:27:33.928Z,46.78
2022-12-03T08:30:03.859Z,46.73
2022-12-03T08:32:31.524Z,46.71
2022-12-03T08:34:58.603Z,46.75
2022-12-03T08:37:25.532Z,46.58
2022-12-03T08:39:54.868Z,46.34
2022-12-03T08:42:26.943Z,46.19
2022-12-03T08:44:56.235Z,46.32
2022-12-03T08:47:24.371Z,46.04
2022-12-03T08:49:54.464Z,46.02
2022-12-03T08:52:22.308Z,45.85
2022-12-03T08:54:52.940Z,45.62
2022-12-03T08:57:21.451Z,45.44
2022-12-03T08:59:48.405Z,45.65
2022-12-03T09:02:21.975Z,45.28
2022-12-03T09:04:49.173Z,45.12
2022-12-03T09:07:16.148Z,45.26
2022-12-03T09:09:43.055Z,45.01
2022-12-03T09:12:10.144Z,44.86
2022-12-03T09:14:37.033Z,44.81
2022-12-03T09:17:04.109Z,44.94
2022-12-03T09:19:32.160Z,44.99
2022-12-03T09:21:59.025Z,45.00
2022-12-03T09:24:25.963Z,45.18
2022-12-03T09:26:53.003Z,45.32
2022-12-03T09:29:20.068Z,42.72
2022-12-03T09:31:47.283Z,38.86
2022-12-03T09:34:14.258Z,40.73
2022-12-03T09:36:41.195Z,41.76
2022-12-03T09:39:08.074Z,41.46
2022-12-03T09:41:35.125Z,41.57
2022-12-03T09:44:04.461Z,41.45
2022-12-03T09:46:32.989Z,42.00
2022-12-03T09:49:00.787Z,42.05
2022-12-03T09:51:30.587Z,41.75
2022-12-03T09:53:59.740Z,42.16
2022-12-03T09:56:26.933Z,42.15
2022-12-03T09:58:54.028Z,42.42
2022-12-03T10:01:21.100Z,42.94
2022-12-03T10:03:51.242Z,39.42
2022-12-03T10:06:19.438Z,40.63
2022-12-03T10:08:48.755Z,41.85
2022-12-03T10:11:16.455Z,41.71
2022-12-03T10:13:43.907Z,41.27
2022-12-03T10:16:12.913Z,41.43
2022-12-03T10:18:42.326Z,41.39
2022-12-03T10:21:17.397Z,41.91
2022-12-03T10:23:44.376Z,41.50
2022-12-03T10:26:11.345Z,42.00
2022-12-03T10:28:40.059Z,42.16
2022-12-03T10:31:08.362Z,42.13
2022-12-03T10:33:36.313Z,42.04
2022-12-03T10:36:06.187Z,42.10
2022-12-03T10:38:33.033Z,41.92
2022-12-03T10:41:00.298Z,42.06
2022-12-03T10:43:27.295Z,41.98
2022-12-03T10:46:03.363Z,42.44
2022-12-03T10:48:30.878Z,42.50
2022-12-03T10:50:58.154Z,42.58
2022-12-03T10:53:28.871Z,42.71
2022-12-03T10:55:58.867Z,42.64
2022-12-03T10:58:28.396Z,42.64
2022-12-03T11:00:56.710Z,42.38
2022-12-03T11:03:25.994Z,42.62
2022-12-03T11:05:53.936Z,42.50
2022-12-03T11:08:23.512Z,42.49
2022-12-03T11:10:53.380Z,43.03
2022-12-03T11:13:23.517Z,42.84
2022-12-03T11:15:50.411Z,43.17
2022-12-03T11:18:20.313Z,42.82
2022-12-03T11:20:47.661Z,42.88
2022-12-03T11:23:14.474Z,43.13
2022-12-03T11:25:44.432Z,43.39
2022-12-03T11:28:13.940Z,42.76
2022-12-03T11:30:43.986Z,43.07
2022-12-03T11:33:21.909Z,43.05
2022-12-03T11:35:51.873Z,42.56
2022-12-03T11:38:38.698Z,42.56
2022-12-03T11:41:08.656Z,42.37
2022-12-03T11:43:38.673Z,42.66
2022-12-03T11:46:09.610Z,42.70
2022-12-03T11:48:43.807Z,42.48
2022-12-03T11:51:14.345Z,42.31
2022-12-03T11:53:41.500Z,42.36
2022-12-03T11:56:09.533Z,42.76
2022-12-03T11:58:38.698Z,42.60
2022-12-03T12:01:06.976Z,42.51
2022-12-03T12:03:35.347Z,42.28
2022-12-03T12:06:05.457Z,42.04
2022-12-03T12:08:33.647Z,42.46
2022-12-03T12:11:01.122Z,42.27
2022-12-03T12:13:29.148Z,41.89
2022-12-03T12:15:56.129Z,41.84
2022-12-03T12:18:26.666Z,41.91
2022-12-03T12:20:53.737Z,41.71
2022-12-03T12:23:22.371Z,42.03
2022-12-03T12:25:53.999Z,41.70
2022-12-03T12:28:21.326Z,41.79
2022-12-03T12:30:48.528Z,41.71
2022-12-03T12:33:20.124Z,41.68
2022-12-03T12:35:47.176Z,42.33
2022-12-03T12:38:15.694Z,42.27
2022-12-03T12:40:45.298Z,42.25
2022-12-03T12:43:17.640Z,41.91
2022-12-03T12:45:47.976Z,42.06
2022-12-03T12:48:15.555Z,42.38
2022-12-03T12:50:44.289Z,42.30
2022-12-03T12:53:11.632Z,41.83
2022-12-03T12:55:40.045Z,42.45
2022-12-03T12:58:12.108Z,42.60
2022-12-03T13:00:40.303Z,42.54
2022-12-03T13:03:07.554Z,41.98
2022-12-03T13:05:37.591Z,42.02
2022-12-03T13:08:14.383Z,41.98
2022-12-03T13:10:42.253Z,41.93
2022-12-03T13:13:12.252Z,41.49
2022-12-03T13:15:42.957Z,41.76
2022-12-03T13:18:12.953Z,41.44
2022-12-03T13:20:40.039Z,41.12
2022-12-03T13:23:22.428Z,41.18
2022-12-03T13:26:06.322Z,41.20
2022-12-03T13:28:41.312Z,41.05
2022-12-03T13:31:11.394Z,40.79
2022-12-03T13:33:39.240Z,40.93
2022-12-03T13:36:11.344Z,40.52
2022-12-03T13:38:38.156Z,40.59
2022-12-03T13:41:05.356Z,40.68
2022-12-03T13:43:33.017Z,40.44
2022-12-03T13:46:00.307Z,40.80
2022-12-03T13:48:27.632Z,40.88
2022-12-03T13:50:54.733Z,40.67
2022-12-03T13:53:22.621Z,40.85
2022-12-03T13:55:51.124Z,40.36
2022-12-03T13:58:18.187Z,40.74
2022-12-03T14:00:45.350Z,40.79
2022-12-03T14:03:12.325Z,40.42
2022-12-03T14:05:39.332Z,40.40
2022-12-03T14:08:06.580Z,40.13
2022-12-03T14:10:33.987Z,40.18
2022-12-03T14:13:00.945Z,40.33
2022-12-03T14:15:27.844Z,40.05
2022-12-03T14:17:54.860Z,39.87
2022-12-03T14:20:21.816Z,40.17
2022-12-03T14:22:48.715Z,40.20
2022-12-03T14:25:15.773Z,40.10
2022-12-03T14:27:42.737Z,40.25
2022-12-03T14:30:10.434Z,40.44
2022-12-03T14:32:37.335Z,39.98
2022-12-03T14:35:09.641Z,39.80
2022-12-03T14:37:36.962Z,39.94
2022-12-03T14:40:04.197Z,40.12
2022-12-03T14:42:31.101Z,40.33
2022-12-03T14:44:58.141Z,39.87
2022-12-03T14:47:25.020Z,39.79
2022-12-03T14:49:53.472Z,39.97
2022-12-03T14:52:20.569Z,39.68
2022-12-03T14:54:47.564Z,39.86
2022-12-03T14:57:15.435Z,39.65
2022-12-03T14:59:42.729Z,39.76
2022-12-03T15:02:10.064Z,40.00
2022-12-03T15:04:37.489Z,40.19
2022-12-03T15:07:04.419Z,40.03
2022-12-03T15:09:31.427Z,40.16
2022-12-03T15:11:58.335Z,40.26
2022-12-03T15:14:25.255Z,39.79
2022-12-03T15:16:52.309Z,40.03
2022-12-03T15:19:19.219Z,39.83
2022-12-03T15:21:46.294Z,40.12
2022-12-03T15:24:13.307Z,40.06
2022-12-03T15:26:40.295Z,40.12
2022-12-03T15:29:07.378Z,40.17
2022-12-03T15:31:34.463Z,40.24
2022-12-03T15:34:01.679Z,40.65
2022-12-03T15:36:28.531Z,40.36
2022-12-03T15:38:55.680Z,40.58
2022-12-03T15:41:24.370Z,40.52
2022-12-03T15:43:52.810Z,40.81
2022-12-03T15:46:20.928Z,40.62
2022-12-03T15:48:48.150Z,40.59
2022-12-03T15:51:15.139Z,40.75
2022-12-03T15:53:42.082Z,41.12
2022-12-03T15:56:09.040Z,41.19
2022-12-03T15:58:36.067Z,40.94
2022-12-03T16:01:03.217Z,41.19
2022-12-03T16:03:30.342Z,41.27
2022-12-03T16:05:57.254Z,40.84
2022-12-03T16:08:24.141Z,40.81
2022-12-03T16:10:51.048Z,40.84
2022-12-03T16:13:17.892Z,41.31
2022-12-03T16:15:45.189Z,41.18
2022-12-03T16:18:12.097Z,41.05
2022-12-03T16:20:39.034Z,41.37
2022-12-03T16:23:05.954Z,41.03
2022-12-03T16:25:33.113Z,41.49
2022-12-03T16:28:00.075Z,41.08
2022-12-03T16:30:27.079Z,41.29
2022-12-03T16:32:54.208Z,41.35
2022-12-03T16:35:21.468Z,41.57
2022-12-03T16:37:48.434Z,41.34
2022-12-03T16:40:15.388Z,41.22
2022-12-03T16:42:42.352Z,41.64
2022-12-03T16:45:09.988Z,41.32
2022-12-03T16:47:37.231Z,41.25
2022-12-03T16:50:05.826Z,41.27
2022-12-03T16:52:32.731Z,41.54
2022-12-03T16:54:59.671Z,41.58
2022-12-03T16:57:31.932Z,41.41
2022-12-03T17:00:02.861Z,41.48
2022-12-03T17:02:29.854Z,41.82
2022-12-03T17:04:56.831Z,41.90
2022-12-03T17:07:23.753Z,41.64
2022-12-03T17:09:50.894Z,41.68
2022-12-03T17:12:18.032Z,41.75
2022-12-03T17:14:45.162Z,42.04
2022-12-03T17:17:12.041Z,41.90
2022-12-03T17:19:39.093Z,42.05
2022-12-03T17:22:06.020Z,41.68
2022-12-03T17:24:32.988Z,41.84
2022-12-03T17:26:59.861Z,42.21
2022-12-03T17:29:26.783Z,42.00
2022-12-03T17:31:53.772Z,41.95
2022-12-03T17:34:20.807Z,41.94
2022-12-03T17:36:57.841Z,41.98
2022-12-03T17:39:24.814Z,42.08
2022-12-03T17:41:51.788Z,42.22
2022-12-03T17:44:21.167Z,41.90
2022-12-03T17:46:48.404Z,42.00
2022-12-03T17:49:15.809Z,41.99
2022-12-03T17:51:42.702Z,42.46
2022-12-03T17:54:09.539Z,42.38
2022-12-03T17:56:36.528Z,42.45
2022-12-03T17:59:03.490Z,42.10
2022-12-03T18:01:30.419Z,42.48
2022-12-03T18:03:57.502Z,42.53
2022-12-03T18:06:26.515Z,42.15
2022-12-03T18:08:53.439Z,42.14
2022-12-03T18:11:20.379Z,42.62
2022-12-03T18:13:47.407Z,42.67
2022-12-03T18:16:14.849Z,42.61
2022-12-03T18:18:41.891Z,42.55
2022-12-03T18:21:08.827Z,42.58
2022-12-03T18:23:36.016Z,42.72
2022-12-03T18:26:03.730Z,42.71
2022-12-03T18:28:31.948Z,42.36
2022-12-03T18:30:59.161Z,42.38
2022-12-03T18:33:26.459Z,42.58
2022-12-03T18:35:54.886Z,42.65
2022-12-03T18:38:25.478Z,42.67
2022-12-03T18:40:53.644Z,42.55
2022-12-03T18:43:20.588Z,42.45
2022-12-03T18:45:47.786Z,42.83
2022-12-03T18:48:15.921Z,42.43
2022-12-03T18:50:43.337Z,42.51
2022-12-03T18:53:13.648Z,42.59
2022-12-03T18:55:41.456Z,42.91
2022-12-03T18:58:08.579Z,42.88
2022-12-03T19:00:36.168Z,42.54
2022-12-03T19:03:04.416Z,42.52
2022-12-03T19:05:33.343Z,42.92
2022-12-03T19:08:00.493Z,42.79
2022-12-03T19:10:27.943Z,42.70
2022-12-03T19:12:55.534Z,42.87
2022-12-03T19:15:23.496Z,42.77
2022-12-03T19:17:50.587Z,42.74
2022-12-03T19:20:17.792Z,43.05
2022-12-03T19:22:44.761Z,42.87
2022-12-03T19:25:11.711Z,42.95
2022-12-03T19:27:38.677Z,42.75
2022-12-03T19:30:06.668Z,42.79
2022-12-03T19:32:34.494Z,43.12
2022-12-03T19:35:05.435Z,42.65
2022-12-03T19:37:34.146Z,42.91
2022-12-03T19:40:01.457Z,42.79
2022-12-03T19:42:28.609Z,42.67
2022-12-03T19:44:55.558Z,42.50
2022-12-03T19:47:24.885Z,42.46
2022-12-03T19:49:53.576Z,42.65
2022-12-03T19:52:20.930Z,42.37
2022-12-03T19:54:47.968Z,42.43
2022-12-03T19:57:21.110Z,41.99
2022-12-03T19:59:50.618Z,41.88
2022-12-03T20:02:17.813Z,41.87
2022-12-03T20:04:44.984Z,42.08
2022-12-03T20:07:11.915Z,42.32
2022-12-03T20:09:38.832Z,42.46
2022-12-03T20:12:05.842Z,42.55
2022-12-03T20:14:32.747Z,42.30
2022-12-03T20:16:59.755Z,42.77
2022-12-03T20:19:26.821Z,42.77
2022-12-03T20:21:57.621Z,42.39
2022-12-03T20:24:27.907Z,42.52
2022-12-03T20:26:54.786Z,42.76
2022-12-03T20:29:21.814Z,42.78
2022-12-03T20:31:48.907Z,42.57
2022-12-03T20:34:16.209Z,42.73
2022-12-03T20:36:44.715Z,42.45
2022-12-03T20:39:11.834Z,42.64
2022-12-03T20:41:38.840Z,42.48
2022-12-03T20:44:07.882Z,42.42
2022-12-03T20:46:35.244Z,42.08
2022-12-03T20:49:02.690Z,42.05
2022-12-03T20:51:30.646Z,42.15
2022-12-03T20:53:58.433Z,42.33
2022-12-03T20:56:28.061Z,42.27
2022-12-03T20:58:55.319Z,42.33
2022-12-03T21:01:25.043Z,42.04
2022-12-03T21:03:52.777Z,42.07
2022-12-03T21:06:19.790Z,42.14
2022-12-03T21:08:47.050Z,41.68
2022-12-03T21:11:15.779Z,41.99
2022-12-03T21:13:44.348Z,42.04
2022-12-03T21:16:13.186Z,41.99
2022-12-03T21:18:40.276Z,41.63
2022-12-03T21:21:07.442Z,41.72
2022-12-03T21:23:35.107Z,41.95
2022-12-03T21:26:05.088Z,41.87
2022-12-03T21:28:32.216Z,41.41
2022-12-03T21:31:01.639Z,41.29
2022-12-03T21:33:28.968Z,41.68
2022-12-03T21:35:56.409Z,41.23
2022-12-03T21:38:23.827Z,41.18
2022-12-03T21:40:51.083Z,41.52
2022-12-03T21:43:18.132Z,41.01
2022-12-03T21:45:45.162Z,41.41
2022-12-03T21:48:12.424Z,41.15
2022-12-03T21:50:39.622Z,41.39
2022-12-03T21:53:06.571Z,40.97
2022-12-03T21:55:35.091Z,41.21
2022-12-03T21:58:02.190Z,41.30
2022-12-03T22:00:29.227Z,41.35
2022-12-03T22:02:56.334Z,41.39
2022-12-03T22:05:23.339Z,41.08
2022-12-03T22:07:50.421Z,41.13
2022-12-03T22:10:17.681Z,40.83
2022-12-03T22:12:44.498Z,40.97
2022-12-03T22:15:18.148Z,40.97
2022-12-03T22:17:45.992Z,41.14
2022-12-03T22:20:13.185Z,40.65
2022-12-03T22:22:40.451Z,40.61
2022-12-03T22:25:08.159Z,40.64
2022-12-03T22:27:35.088Z,40.33
2022-12-03T22:30:02.691Z,40.49
2022-12-03T22:32:29.780Z,40.84
2022-12-03T22:34:56.758Z,40.62
2022-12-03T22:37:23.691Z,40.80
2022-12-03T22:39:50.972Z,40.36
2022-12-03T22:42:17.917Z,40.88
2022-12-03T22:44:44.771Z,40.58
2022-12-03T22:47:11.777Z,40.61
2022-12-03T22:49:38.822Z,40.41
2022-12-03T22:52:05.771Z,40.42
2022-12-03T22:54:32.668Z,40.21
2022-12-03T22:56:59.771Z,40.14
2022-12-03T22:59:26.776Z,39.32
2022-12-03T23:01:53.771Z,39.89
2022-12-03T23:04:20.760Z,39.75
2022-12-03T23:06:47.637Z,39.71
2022-12-03T23:09:14.849Z,39.74
2022-12-03T23:11:44.031Z,39.21
2022-12-03T23:14:10.958Z,40.34
2022-12-03T23:16:37.998Z,39.75
2022-12-03T23:19:07.992Z,40.09
2022-12-03T23:21:35.596Z,40.02
2022-12-03T23:24:03.832Z,39.83
2022-12-03T23:26:30.814Z,40.08
2022-12-03T23:28:57.668Z,39.96
2022-12-03T23:31:26.661Z,40.46
2022-12-03T23:33:54.001Z,40.64
2022-12-03T23:36:21.657Z,40.37
2022-12-03T23:38:48.447Z,40.23
2022-12-03T23:41:16.488Z,40.22
2022-12-03T23:43:43.656Z,40.30
2022-12-03T23:46:13.312Z,40.83
2022-12-03T23:48:40.253Z,40.79
2022-12-03T23:51:08.880Z,41.10
2022-12-03T23:53:36.374Z,41.30
2022-12-03T23:56:06.278Z,41.01
2022-12-03T23:58:34.127Z,41.28
